createdAt,value
2022-11-14T00:00:44.494Z,10.40
2022-11-14T00:03:16.310Z,10.40
2022-11-14T00:05:48.108Z,10.40
2022-11-14T00:08:21.027Z,10.40
2022-11-14T00:10:52.901Z,10.40
2022-11-14T00:13:24.618Z,10.40
2022-11-14T00:15:56.431Z,10.40
2022-11-14T00:18:28.502Z,10.40
2022-11-14T00:21:00.534Z,10.40
2022-11-14T00:23:34.556Z,10.40
2022-11-14T00:26:08.602Z,10.30
2022-11-14T00:28:40.361Z,10.40
2022-11-14T00:31:12.339Z,10.40
2022-11-14T00:33:44.085Z,10.30
2022-11-14T00:36:15.858Z,10.30
2022-11-14T00:38:47.583Z,10.40
2022-11-14T00:41:19.327Z,10.40
2022-11-14T00:43:51.129Z,10.30
2022-11-14T00:46:22.881Z,10.40
2022-11-14T00:48:54.595Z,10.40
2022-11-14T00:51:26.431Z,10.30
2022-11-14T00:53:58.245Z,10.30
2022-11-14T00:56:30.088Z,10.40
2022-11-14T00:59:01.804Z,10.30
2022-11-14T01:01:33.598Z,10.30
2022-11-14T01:04:05.365Z,10.40
2022-11-14T01:06:37.150Z,10.40
2022-11-14T01:09:08.904Z,10.40
2022-11-14T01:11:40.728Z,10.30
2022-11-14T01:14:12.489Z,10.30
2022-11-14T01:16:44.269Z,10.30
2022-11-14T01:19:16.049Z,10.30
2022-11-14T01:21:48.094Z,10.30
2022-11-14T01:24:19.825Z,10.30
2022-11-14T01:26:51.610Z,10.30
2022-11-14T01:29:23.345Z,10.30
2022-11-14T01:31:55.360Z,10.30
2022-11-14T01:34:29.667Z,10.20
2022-11-14T01:37:01.471Z,10.30
2022-11-14T01:39:33.381Z,10.20
2022-11-14T01:42:05.183Z,10.20
2022-11-14T01:44:50.608Z,10.20
2022-11-14T01:47:24.325Z,10.20
2022-11-14T01:49:58.503Z,10.20
2022-11-14T01:52:37.771Z,10.20
2022-11-14T01:55:10.038Z,10.20
2022-11-14T01:57:44.229Z,10.20
2022-11-14T02:00:16.043Z,10.20
2022-11-14T02:02:47.918Z,10.20
2022-11-14T02:05:19.761Z,10.10
2022-11-14T02:07:53.625Z,10.20
2022-11-14T02:10:25.381Z,10.20
2022-11-14T02:12:57.116Z,10.20
2022-11-14T02:15:28.847Z,10.10
2022-11-14T02:18:01.517Z,10.10
2022-11-14T02:20:43.190Z,10.10
2022-11-14T02:23:15.962Z,10.10
2022-11-14T02:25:47.665Z,10.10
2022-11-14T02:28:20.850Z,10.10
2022-11-14T02:30:54.993Z,10.10
2022-11-14T02:33:26.792Z,10.10
2022-11-14T02:35:58.532Z,10.10
2022-11-14T02:38:32.892Z,10.10
2022-11-14T02:41:04.916Z,10.00
2022-11-14T02:43:36.724Z,10.00
2022-11-14T02:46:08.576Z,10.00
2022-11-14T02:48:40.311Z,10.00
2022-11-14T02:51:11.996Z,10.00
2022-11-14T02:53:43.740Z,10.00
2022-11-14T02:56:15.484Z,9.90
2022-11-14T02:58:47.239Z,9.90
2022-11-14T03:01:21.131Z,9.90
2022-11-14T03:03:53.477Z,9.90
2022-11-14T03:06:25.240Z,9.90
2022-11-14T03:08:57.066Z,9.90
2022-11-14T03:11:28.821Z,9.90
2022-11-14T03:14:00.692Z,9.80
2022-11-14T03:16:34.910Z,9.80
2022-11-14T03:19:09.224Z,9.80
2022-11-14T03:21:43.559Z,9.80
2022-11-14T03:24:15.587Z,9.80
2022-11-14T03:26:47.265Z,9.80
2022-11-14T03:29:21.511Z,9.80
2022-11-14T03:31:53.207Z,9.80
2022-11-14T03:34:24.952Z,9.80
2022-11-14T03:36:56.723Z,9.80
2022-11-14T03:39:28.519Z,9.80
2022-11-14T03:42:00.381Z,9.80
2022-11-14T03:44:32.238Z,9.70
2022-11-14T03:47:04.060Z,9.70
2022-11-14T03:49:35.901Z,9.70
2022-11-14T03:52:07.609Z,9.70
2022-11-14T03:54:39.377Z,9.70
2022-11-14T03:57:11.103Z,9.70
2022-11-14T03:59:42.847Z,9.70
2022-11-14T04:02:17.099Z,9.60
2022-11-14T04:04:48.931Z,9.70
2022-11-14T04:07:20.716Z,9.60
2022-11-14T04:09:52.554Z,9.60
2022-11-14T04:12:24.306Z,9.60
2022-11-14T04:14:58.891Z,9.60
2022-11-14T04:17:33.510Z,9.50
2022-11-14T04:20:09.193Z,9.60
2022-11-14T04:22:41.324Z,9.50
2022-11-14T04:25:13.157Z,9.60
2022-11-14T04:27:47.259Z,9.50
2022-11-14T04:30:19.150Z,9.50
2022-11-14T04:32:50.876Z,9.50
2022-11-14T04:35:22.670Z,9.50
2022-11-14T04:37:54.392Z,9.50
2022-11-14T04:40:26.154Z,9.50
2022-11-14T04:43:00.039Z,9.50
2022-11-14T04:45:31.849Z,9.40
2022-11-14T04:48:04.030Z,9.40
2022-11-14T04:50:35.779Z,9.40
2022-11-14T04:53:09.701Z,9.40
2022-11-14T04:55:41.469Z,9.40
2022-11-14T04:58:13.170Z,9.40
2022-11-14T05:00:45.029Z,9.30
2022-11-14T05:03:16.716Z,9.30
2022-11-14T05:05:51.218Z,9.30
2022-11-14T05:08:22.920Z,9.30
2022-11-14T05:10:54.663Z,9.30
2022-11-14T05:13:28.971Z,9.30
2022-11-14T05:16:01.498Z,9.30
2022-11-14T05:18:33.466Z,9.30
2022-11-14T05:21:05.545Z,9.30
2022-11-14T05:23:39.646Z,9.30
2022-11-14T05:26:12.626Z,9.20
2022-11-14T05:28:45.515Z,9.20
2022-11-14T05:31:18.172Z,9.20
2022-11-14T05:33:50.420Z,9.20
2022-11-14T05:36:22.257Z,9.20
2022-11-14T05:38:54.084Z,9.20
2022-11-14T05:41:25.891Z,9.20
2022-11-14T05:43:57.577Z,9.20
2022-11-14T05:46:31.442Z,9.20
2022-11-14T05:49:03.290Z,9.10
2022-11-14T05:51:35.067Z,9.10
2022-11-14T05:54:06.857Z,9.10
2022-11-14T05:56:38.778Z,9.10
2022-11-14T05:59:10.544Z,9.10
2022-11-14T06:01:42.404Z,9.10
2022-11-14T06:04:15.119Z,9.00
2022-11-14T06:06:46.956Z,9.00
2022-11-14T06:09:19.735Z,9.00
2022-11-14T06:11:51.519Z,9.00
2022-11-14T06:14:23.270Z,9.00
2022-11-14T06:16:55.051Z,9.00
2022-11-14T06:19:29.145Z,9.00
2022-11-14T06:22:03.581Z,9.00
2022-11-14T06:24:37.765Z,9.00
2022-11-14T06:27:09.595Z,9.00
2022-11-14T06:29:41.348Z,9.00
2022-11-14T06:32:15.333Z,9.00
2022-11-14T06:34:47.057Z,9.00
2022-11-14T06:37:21.336Z,9.00
2022-11-14T06:39:53.137Z,9.00
2022-11-14T06:42:24.933Z,9.00
2022-11-14T06:44:59.013Z,9.00
2022-11-14T06:47:30.774Z,9.00
2022-11-14T06:50:04.797Z,9.00
2022-11-14T06:52:36.573Z,9.00
2022-11-14T06:55:13.365Z,9.00
2022-11-14T06:57:45.142Z,9.00
2022-11-14T07:00:17.004Z,9.00
2022-11-14T07:02:49.212Z,8.90
2022-11-14T07:05:20.950Z,9.00
2022-11-14T07:07:52.754Z,8.90
2022-11-14T07:10:24.457Z,9.00
2022-11-14T07:12:56.247Z,9.00
2022-11-14T07:15:27.998Z,9.00
2022-11-14T07:18:02.224Z,9.00
2022-11-14T07:20:33.966Z,9.00
2022-11-14T07:23:05.720Z,9.00
2022-11-14T07:25:37.580Z,9.00
2022-11-14T07:28:09.360Z,9.00
2022-11-14T07:30:41.760Z,8.90
2022-11-14T07:33:13.503Z,8.90
2022-11-14T07:35:45.213Z,8.90
2022-11-14T07:38:16.997Z,8.90
2022-11-14T07:40:59.302Z,8.90
2022-11-14T07:43:31.776Z,8.90
2022-11-14T07:46:05.581Z,8.90
2022-11-14T07:48:37.406Z,8.90
2022-11-14T07:51:16.642Z,8.90
2022-11-14T07:53:48.622Z,8.90
2022-11-14T07:56:20.486Z,8.90
2022-11-14T07:58:54.597Z,8.90
2022-11-14T08:01:28.486Z,8.90
2022-11-14T08:04:00.535Z,8.80
2022-11-14T08:06:32.286Z,8.90
2022-11-14T08:09:04.123Z,8.90
2022-11-14T08:11:47.937Z,8.90
2022-11-14T08:14:19.778Z,8.90
2022-11-14T08:16:51.477Z,8.90
2022-11-14T08:19:23.353Z,8.90
2022-11-14T08:21:57.604Z,8.90
2022-11-14T08:24:29.375Z,8.90
2022-11-14T08:27:01.125Z,9.00
2022-11-14T08:29:32.964Z,9.00
2022-11-14T08:32:04.749Z,9.00
2022-11-14T08:34:37.061Z,8.90
2022-11-14T08:37:08.880Z,9.00
2022-11-14T08:39:40.805Z,9.00
2022-11-14T08:42:12.683Z,9.00
2022-11-14T08:44:47.964Z,9.10
2022-11-14T08:47:23.599Z,9.10
2022-11-14T08:49:55.403Z,9.20
2022-11-14T08:52:27.169Z,9.20
2022-11-14T08:54:58.942Z,9.30
2022-11-14T08:57:30.759Z,9.30
2022-11-14T09:00:02.726Z,9.30
2022-11-14T09:02:34.449Z,9.30
2022-11-14T09:05:06.337Z,9.30
2022-11-14T09:07:40.593Z,9.30
2022-11-14T09:10:12.358Z,9.30
2022-11-14T09:12:46.640Z,9.30
2022-11-14T09:15:18.461Z,9.30
2022-11-14T09:17:53.498Z,9.40
2022-11-14T09:20:33.255Z,9.40
2022-11-14T09:23:07.938Z,9.40
2022-11-14T09:25:39.741Z,9.40
2022-11-14T09:28:11.505Z,9.40
2022-11-14T09:30:43.438Z,9.40
2022-11-14T09:33:15.217Z,9.40
2022-11-14T09:35:46.998Z,9.50
2022-11-14T09:38:18.745Z,9.50
2022-11-14T09:41:08.960Z,9.50
2022-11-14T09:43:59.525Z,9.50
2022-11-14T09:46:38.008Z,9.60
2022-11-14T09:49:23.627Z,9.60
2022-11-14T09:52:08.619Z,9.60
2022-11-14T09:54:55.949Z,9.60
2022-11-14T09:57:30.260Z,9.60
2022-11-14T10:00:02.093Z,9.70
2022-11-14T10:02:36.839Z,9.70
2022-11-14T10:05:14.309Z,9.80
2022-11-14T10:08:04.745Z,9.80
2022-11-14T10:10:56.476Z,9.90
2022-11-14T10:13:31.583Z,9.90
2022-11-14T10:16:06.400Z,10.00
2022-11-14T10:18:42.699Z,10.00
2022-11-14T10:21:23.503Z,10.10
2022-11-14T10:24:13.739Z,10.10
2022-11-14T10:26:57.165Z,10.10
2022-11-14T10:29:28.875Z,10.10
2022-11-14T10:32:00.579Z,10.00
2022-11-14T10:34:37.834Z,10.10
2022-11-14T10:37:15.314Z,10.00
2022-11-14T10:39:51.319Z,9.90
2022-11-14T10:42:32.659Z,9.90
2022-11-14T10:45:10.293Z,9.90
2022-11-14T10:47:46.359Z,9.90
2022-11-14T10:50:18.150Z,9.90
2022-11-14T10:52:52.537Z,9.90
2022-11-14T10:55:43.520Z,9.80
2022-11-14T10:58:16.835Z,9.80
2022-11-14T11:00:48.700Z,9.80
2022-11-14T11:03:20.529Z,9.80
2022-11-14T11:05:56.779Z,9.70
2022-11-14T11:08:47.619Z,9.60
2022-11-14T11:11:32.180Z,9.60
2022-11-14T11:14:04.019Z,9.50
2022-11-14T11:16:35.842Z,9.40
2022-11-14T11:19:15.037Z,9.50
2022-11-14T11:21:48.848Z,9.40
2022-11-14T11:24:34.053Z,9.40
2022-11-14T11:27:25.997Z,9.40
2022-11-14T11:30:03.905Z,9.30
2022-11-14T11:32:35.901Z,9.20
2022-11-14T11:35:12.358Z,9.20
2022-11-14T11:37:55.916Z,9.20
2022-11-14T11:40:29.069Z,9.20
2022-11-14T11:46:04.281Z,9.10
2022-11-14T11:48:39.789Z,9.00
2022-11-14T11:51:17.632Z,9.00
2022-11-14T11:54:07.365Z,8.90
2022-11-14T11:56:40.128Z,8.90
2022-11-14T11:59:22.199Z,8.80
2022-11-14T12:01:54.493Z,8.80
2022-11-14T12:04:26.337Z,8.80
2022-11-14T12:07:18.441Z,8.80
2022-11-14T12:10:09.842Z,8.80
2022-11-14T12:12:42.216Z,8.70
2022-11-14T12:15:17.434Z,8.60
2022-11-14T12:18:10.391Z,8.60
2022-11-14T12:20:53.450Z,8.60
2022-11-14T12:23:25.431Z,8.60
2022-11-14T12:26:03.055Z,8.60
2022-11-14T12:28:42.325Z,8.60
2022-11-14T12:31:17.971Z,8.60
2022-11-14T12:34:22.522Z,8.60
2022-11-14T12:36:56.993Z,8.50
2022-11-14T12:39:30.352Z,8.50
2022-11-14T12:42:03.679Z,8.50
2022-11-14T12:44:35.665Z,8.50
2022-11-14T12:47:20.479Z,8.50
2022-11-14T12:49:52.739Z,8.50
2022-11-14T12:52:43.978Z,8.50
2022-11-14T12:55:18.738Z,8.40
2022-11-14T12:58:02.716Z,8.50
2022-11-14T13:00:46.442Z,8.50
2022-11-14T13:03:36.529Z,8.50
2022-11-14T13:06:29.449Z,8.50
2022-11-14T13:09:10.026Z,8.40
2022-11-14T13:12:02.042Z,8.40
2022-11-14T13:15:07.290Z,8.40
2022-11-14T13:17:59.931Z,8.40
2022-11-14T13:20:52.427Z,8.40
2022-11-14T13:23:30.200Z,8.30
2022-11-14T13:26:11.281Z,8.30
2022-11-14T13:28:48.710Z,8.20
2022-11-14T13:31:22.077Z,8.20
2022-11-14T13:33:59.152Z,8.10
2022-11-14T13:36:35.710Z,8.00
2022-11-14T13:39:20.756Z,8.00
2022-11-14T13:42:13.703Z,8.00
2022-11-14T13:44:57.520Z,8.00
2022-11-14T13:47:36.785Z,8.00
2022-11-14T13:50:11.243Z,8.00
2022-11-14T13:52:44.716Z,8.00
2022-11-14T13:55:22.726Z,8.00
2022-11-14T13:58:00.563Z,7.90
2022-11-14T14:00:47.881Z,7.90
2022-11-14T14:03:38.969Z,7.90
2022-11-14T14:06:10.759Z,7.90
2022-11-14T14:09:04.769Z,7.90
2022-11-14T14:11:55.152Z,7.90
2022-11-14T14:14:29.080Z,7.90
2022-11-14T14:17:13.941Z,7.90
2022-11-14T14:19:45.723Z,7.80
2022-11-14T14:22:19.928Z,7.80
2022-11-14T14:24:55.798Z,7.80
2022-11-14T14:27:46.415Z,7.80
2022-11-14T14:30:19.004Z,7.80
2022-11-14T14:33:09.176Z,7.70
2022-11-14T14:35:50.128Z,7.70
2022-11-14T14:38:26.188Z,7.70
2022-11-14T14:40:58.287Z,7.60
2022-11-14T14:43:34.032Z,7.60
2022-11-14T14:46:06.004Z,7.60
2022-11-14T14:48:40.651Z,7.70
2022-11-14T14:51:14.402Z,7.60
2022-11-14T14:53:53.678Z,7.60
2022-11-14T14:56:25.775Z,7.60
2022-11-14T14:58:57.735Z,7.60
2022-11-14T15:01:34.207Z,7.60
2022-11-14T15:04:07.316Z,7.60
2022-11-14T15:06:39.682Z,7.60
2022-11-14T15:09:17.431Z,7.60
2022-11-14T15:11:53.746Z,7.60
2022-11-14T15:14:38.155Z,7.60
2022-11-14T15:17:10.676Z,7.60
2022-11-14T15:19:46.692Z,7.60
2022-11-14T15:22:40.689Z,7.60
2022-11-14T15:25:12.497Z,7.60
2022-11-14T15:27:45.562Z,7.60
2022-11-14T15:30:22.641Z,7.50
2022-11-14T15:32:55.453Z,7.50
2022-11-14T15:35:27.292Z,7.40
2022-11-14T15:38:53.768Z,7.50
2022-11-14T15:41:23.188Z,7.40
2022-11-14T15:44:02.094Z,7.40
2022-11-14T15:46:33.917Z,7.40
2022-11-14T15:49:10.697Z,7.40
2022-11-14T15:51:44.751Z,7.40
2022-11-14T15:54:21.271Z,7.50
2022-11-14T15:59:53.990Z,7.50
2022-11-14T16:02:28.989Z,7.50
2022-11-14T16:05:01.435Z,7.50
2022-11-14T16:07:33.471Z,7.60
2022-11-14T16:10:13.268Z,7.50
2022-11-14T16:12:49.483Z,7.60
2022-11-14T16:15:24.164Z,7.60
2022-11-14T16:17:56.034Z,7.60
2022-11-14T16:20:29.888Z,7.50
2022-11-14T16:26:01.986Z,7.60
2022-11-14T16:28:34.081Z,7.50
2022-11-14T16:31:11.874Z,7.50
2022-11-14T16:33:47.442Z,7.50
2022-11-14T16:36:23.510Z,7.50
2022-11-14T16:39:02.278Z,7.40
2022-11-14T16:41:34.118Z,7.50
2022-11-14T16:44:06.301Z,7.50
2022-11-14T16:46:40.594Z,7.50
2022-11-14T16:49:15.740Z,7.50
2022-11-14T16:51:50.181Z,7.50
2022-11-14T16:54:22.575Z,7.50
2022-11-14T16:56:54.350Z,7.50
2022-11-14T16:59:26.141Z,7.50
2022-11-14T17:01:58.211Z,7.50
2022-11-14T17:04:33.123Z,7.50
2022-11-14T17:07:04.993Z,7.50
2022-11-14T17:09:39.319Z,7.50
2022-11-14T17:12:13.459Z,7.40
2022-11-14T17:14:45.298Z,7.40
2022-11-14T17:17:17.264Z,7.40
2022-11-14T17:19:49.155Z,7.40
2022-11-14T17:22:21.084Z,7.40
2022-11-14T17:24:52.877Z,7.40
2022-11-14T17:27:24.720Z,7.40
2022-11-14T17:29:58.615Z,7.40
2022-11-14T17:32:32.577Z,7.40
2022-11-14T17:35:04.483Z,7.40
2022-11-14T17:37:36.476Z,7.30
2022-11-14T17:40:14.204Z,7.40
2022-11-14T17:42:49.388Z,7.40
2022-11-14T17:45:21.230Z,7.30
2022-11-14T17:47:52.998Z,7.40
2022-11-14T17:50:24.855Z,7.40
2022-11-14T17:52:56.624Z,7.30
2022-11-14T17:55:28.373Z,7.30
2022-11-14T17:58:00.170Z,7.30
2022-11-14T18:00:31.995Z,7.30
2022-11-14T18:03:03.964Z,7.30
2022-11-14T18:05:35.753Z,7.30
2022-11-14T18:08:07.589Z,7.30
2022-11-14T18:10:39.450Z,7.30
2022-11-14T18:13:11.244Z,7.30
2022-11-14T18:15:42.992Z,7.30
2022-11-14T18:18:14.924Z,7.30
2022-11-14T18:20:47.153Z,7.20
2022-11-14T18:23:21.407Z,7.30
2022-11-14T18:25:53.232Z,7.30
2022-11-14T18:28:25.007Z,7.20
2022-11-14T18:30:56.855Z,7.20
2022-11-14T18:33:30.778Z,7.20
2022-11-14T18:36:05.728Z,7.20
2022-11-14T18:38:37.619Z,7.20
2022-11-14T18:41:12.871Z,7.30
2022-11-14T18:43:47.686Z,7.20
2022-11-14T18:46:20.326Z,7.20
2022-11-14T18:48:53.327Z,7.20
2022-11-14T18:51:28.221Z,7.30
2022-11-14T18:54:00.095Z,7.30
2022-11-14T18:56:31.853Z,7.20
2022-11-14T18:59:05.794Z,7.20
2022-11-14T19:01:39.758Z,7.20
2022-11-14T19:04:12.256Z,7.20
2022-11-14T19:06:46.509Z,7.20
2022-11-14T19:09:22.862Z,7.20
2022-11-14T19:12:13.428Z,7.20
2022-11-14T19:14:46.403Z,7.10
2022-11-14T19:17:22.606Z,7.10
2022-11-14T19:19:54.489Z,7.20
2022-11-14T19:22:26.300Z,7.20
2022-11-14T19:24:59.192Z,7.10
2022-11-14T19:27:31.059Z,7.10
2022-11-14T19:30:03.089Z,7.10
2022-11-14T19:32:37.338Z,7.10
2022-11-14T19:35:09.612Z,7.10
2022-11-14T19:37:41.334Z,7.10
2022-11-14T19:40:13.625Z,7.10
2022-11-14T19:42:45.400Z,7.10
2022-11-14T19:45:17.315Z,7.10
2022-11-14T19:47:49.118Z,7.10
2022-11-14T19:50:21.065Z,7.10
2022-11-14T19:52:54.932Z,7.00
2022-11-14T19:55:28.918Z,7.00
2022-11-14T19:58:00.755Z,7.00
2022-11-14T20:00:32.522Z,7.00
2022-11-14T20:03:06.744Z,7.00
2022-11-14T20:05:41.067Z,7.00
2022-11-14T20:08:12.790Z,7.00
2022-11-14T20:10:56.474Z,7.00
2022-11-14T20:13:34.042Z,7.00
2022-11-14T20:16:18.807Z,7.00
2022-11-14T20:18:57.538Z,7.00
2022-11-14T20:21:31.739Z,6.90
2022-11-14T20:24:03.650Z,6.90
2022-11-14T20:26:35.894Z,6.90
2022-11-14T20:29:07.990Z,6.90
2022-11-14T20:31:42.199Z,6.90
2022-11-14T20:34:14.011Z,7.00
2022-11-14T20:37:09.786Z,7.00
2022-11-14T20:39:39.276Z,6.90
2022-11-14T20:42:11.119Z,6.90
2022-11-14T20:44:45.434Z,6.90
2022-11-14T20:47:19.578Z,6.90
2022-11-14T20:49:51.423Z,6.90
2022-11-14T20:52:23.573Z,6.90
2022-11-14T20:54:55.373Z,6.90
2022-11-14T20:57:27.313Z,6.90
2022-11-14T20:59:59.506Z,6.90
2022-11-14T21:02:35.416Z,6.90
2022-11-14T21:05:07.493Z,6.90
2022-11-14T21:07:39.489Z,6.90
2022-11-14T21:10:30.205Z,6.90
2022-11-14T21:13:25.361Z,6.90
2022-11-14T21:15:57.899Z,6.90
2022-11-14T21:18:32.949Z,6.90
2022-11-14T21:21:07.096Z,6.90
2022-11-14T21:23:39.186Z,7.00
2022-11-14T21:26:17.806Z,6.90
2022-11-14T21:28:51.832Z,6.90
2022-11-14T21:31:33.597Z,6.90
2022-11-14T21:34:06.688Z,6.90
2022-11-14T21:36:45.013Z,6.90
2022-11-14T21:39:20.421Z,6.90
2022-11-14T21:41:53.010Z,6.90
2022-11-14T21:44:24.955Z,6.90
2022-11-14T21:46:56.898Z,6.80
2022-11-14T21:49:28.802Z,6.80
2022-11-14T21:52:00.563Z,6.80
2022-11-14T21:54:34.797Z,6.80
2022-11-14T21:57:10.035Z,6.80
2022-11-14T21:59:42.253Z,6.80
2022-11-14T22:02:32.563Z,6.80
2022-11-14T22:05:04.617Z,6.80
2022-11-14T22:07:42.675Z,6.80
2022-11-14T22:10:14.546Z,6.80
2022-11-14T22:12:51.320Z,6.80
2022-11-14T22:15:23.115Z,6.80
2022-11-14T22:17:54.920Z,6.70
2022-11-14T22:20:26.718Z,6.80
2022-11-14T22:22:58.479Z,6.70
2022-11-14T22:25:30.324Z,6.70
2022-11-14T22:28:02.118Z,6.70
2022-11-14T22:30:33.906Z,6.70
2022-11-14T22:33:05.633Z,6.70
2022-11-14T22:35:37.440Z,6.70
2022-11-14T22:38:09.158Z,6.80
2022-11-14T22:40:41.017Z,6.70
2022-11-14T22:43:12.758Z,6.80
2022-11-14T22:45:50.539Z,6.80
2022-11-14T22:48:22.691Z,6.80
2022-11-14T22:51:01.228Z,6.70
2022-11-14T22:53:36.572Z,6.70
2022-11-14T22:56:09.061Z,6.70
2022-11-14T22:58:41.860Z,6.70
2022-11-14T23:01:19.093Z,6.80
2022-11-14T23:03:57.414Z,6.70
2022-11-14T23:06:29.838Z,6.70
2022-11-14T23:09:02.639Z,6.70
2022-11-14T23:11:34.451Z,6.70
2022-11-14T23:14:06.139Z,6.70
2022-11-14T23:16:37.876Z,6.60
2022-11-14T23:19:12.016Z,6.70
2022-11-14T23:21:45.990Z,6.70
2022-11-14T23:24:17.788Z,6.60
2022-11-14T23:26:51.895Z,6.60
2022-11-14T23:29:26.095Z,6.60
2022-11-14T23:31:57.828Z,6.60
2022-11-14T23:34:29.537Z,6.70
2022-11-14T23:37:01.234Z,6.70
2022-11-14T23:39:35.503Z,6.60
2022-11-14T23:42:07.261Z,6.60
2022-11-14T23:44:39.070Z,6.60
2022-11-14T23:47:10.856Z,6.60
2022-11-14T23:49:42.594Z,6.60
2022-11-14T23:52:14.351Z,6.60
2022-11-14T23:54:48.281Z,6.70
2022-11-14T23:57:20.039Z,6.60
2022-11-14T23:59:51.753Z,6.70
